sensor_id;sensor_type;location;lat;lon;timestamp;P1;durP1;ratioP1;P2;durP2;ratioP2
10162;SDS011;5123;52.556;13.384;2024-02-26T00:01:58;18.57;;;13.57;;
10162;SDS011;5123;52.556;13.384;2024-02-26T00:04:31;20.33;;;14.47;;
10162;SDS011;5123;52.556;13.384;2024-02-26T00:07:03;18.83;;;13.63;;
10162;SDS011;5123;52.556;13.384;2024-02-26T00:09:38;20.43;;;14.37;;
10162;SDS011;5123;52.556;13.384;2024-02-26T00:12:10;18.57;;;13.93;;
10162;SDS011;5123;52.556;13.384;2024-02-26T00:14:44;19.80;;;14.57;;
10162;SDS011;5123;52.556;13.384;2024-02-26T00:17:18;25.53;;;14.80;;
10162;SDS011;5123;52.556;13.384;2024-02-26T00:19:51;17.77;;;14.27;;
10162;SDS011;5123;52.556;13.384;2024-02-26T00:22:24;20.40;;;14.97;;
10162;SDS011;5123;52.556;13.384;2024-02-26T00:24:58;22.63;;;15.70;;
10162;SDS011;5123;52.556;13.384;2024-02-26T00:27:31;21.17;;;14.77;;
10162;SDS011;5123;52.556;13.384;2024-02-26T00:30:06;22.67;;;15.30;;
10162;SDS011;5123;52.556;13.384;2024-02-26T00:32:39;18.57;;;14.30;;
10162;SDS011;5123;52.556;13.384;2024-02-26T00:35:13;23.07;;;15.77;;
10162;SDS011;5123;52.556;13.384;2024-02-26T00:37:47;18.93;;;14.83;;
10162;SDS011;5123;52.556;13.384;2024-02-26T00:40:21;21.57;;;13.00;;
10162;SDS011;5123;52.556;13.384;2024-02-26T00:42:53;19.13;;;13.53;;
10162;SDS011;5123;52.556;13.384;2024-02-26T00:45:28;20.13;;;15.17;;
10162;SDS011;5123;52.556;13.384;2024-02-26T00:48:04;19.50;;;14.33;;
10162;SDS011;5123;52.556;13.384;2024-02-26T00:50:41;18.73;;;14.73;;
10162;SDS011;5123;52.556;13.384;2024-02-26T00:53:14;18.60;;;13.30;;
10162;SDS011;5123;52.556;13.384;2024-02-26T00:55:51;17.57;;;13.53;;
10162;SDS011;5123;52.556;13.384;2024-02-26T00:58:23;17.67;;;14.00;;
10162;SDS011;5123;52.556;13.384;2024-02-26T01:00:56;20.20;;;13.67;;
10162;SDS011;5123;52.556;13.384;2024-02-26T01:03:29;19.33;;;14.40;;
10162;SDS011;5123;52.556;13.384;2024-02-26T01:06:04;19.40;;;13.67;;
10162;SDS011;5123;52.556;13.384;2024-02-26T01:08:37;17.13;;;13.17;;
10162;SDS011;5123;52.556;13.384;2024-02-26T01:11:14;18.97;;;13.50;;
10162;SDS011;5123;52.556;13.384;2024-02-26T01:13:47;16.73;;;13.00;;
10162;SDS011;5123;52.556;13.384;2024-02-26T01:16:20;18.77;;;13.77;;
10162;SDS011;5123;52.556;13.384;2024-02-26T01:18:53;18.73;;;12.40;;
10162;SDS011;5123;52.556;13.384;2024-02-26T01:21:26;14.20;;;12.37;;
10162;SDS011;5123;52.556;13.384;2024-02-26T01:24:00;16.50;;;13.23;;
10162;SDS011;5123;52.556;13.384;2024-02-26T01:26:34;17.33;;;12.00;;
10162;SDS011;5123;52.556;13.384;2024-02-26T01:29:07;17.10;;;12.43;;
10162;SDS011;5123;52.556;13.384;2024-02-26T01:31:42;15.07;;;12.67;;
10162;SDS011;5123;52.556;13.384;2024-02-26T01:34:15;18.57;;;12.27;;
10162;SDS011;5123;52.556;13.384;2024-02-26T01:36:49;15.93;;;13.00;;
10162;SDS011;5123;52.556;13.384;2024-02-26T01:39:22;17.27;;;12.67;;
10162;SDS011;5123;52.556;13.384;2024-02-26T01:41:58;16.23;;;12.30;;
10162;SDS011;5123;52.556;13.384;2024-02-26T01:44:33;14.90;;;12.83;;
10162;SDS011;5123;52.556;13.384;2024-02-26T01:47:09;16.33;;;12.63;;
10162;SDS011;5123;52.556;13.384;2024-02-26T01:49:46;13.87;;;12.03;;
10162;SDS011;5123;52.556;13.384;2024-02-26T01:52:19;12.67;;;10.97;;
10162;SDS011;5123;52.556;13.384;2024-02-26T01:54:56;12.63;;;10.60;;
10162;SDS011;5123;52.556;13.384;2024-02-26T01:57:32;14.93;;;11.93;;
10162;SDS011;5123;52.556;13.384;2024-02-26T02:00:06;16.63;;;12.43;;
10162;SDS011;5123;52.556;13.384;2024-02-26T02:02:39;16.73;;;12.33;;
10162;SDS011;5123;52.556;13.384;2024-02-26T02:05:13;12.83;;;11.10;;
10162;SDS011;5123;52.556;13.384;2024-02-26T02:07:49;14.00;;;10.97;;
10162;SDS011;5123;52.556;13.384;2024-02-26T02:10:23;12.27;;;10.73;;
10162;SDS011;5123;52.556;13.384;2024-02-26T02:12:58;14.53;;;10.40;;
10162;SDS011;5123;52.556;13.384;2024-02-26T02:15:31;13.53;;;10.43;;
10162;SDS011;5123;52.556;13.384;2024-02-26T02:18:06;15.07;;;11.10;;
10162;SDS011;5123;52.556;13.384;2024-02-26T02:20:41;13.10;;;10.53;;
10162;SDS011;5123;52.556;13.384;2024-02-26T02:23:19;13.30;;;10.70;;
10162;SDS011;5123;52.556;13.384;2024-02-26T02:25:52;11.73;;;8.93;;
10162;SDS011;5123;52.556;13.384;2024-02-26T02:28:26;14.63;;;10.77;;
10162;SDS011;5123;52.556;13.384;2024-02-26T02:31:02;20.80;;;11.20;;
10162;SDS011;5123;52.556;13.384;2024-02-26T02:33:38;11.27;;;9.93;;
10162;SDS011;5123;52.556;13.384;2024-02-26T02:36:13;12.67;;;10.30;;
10162;SDS011;5123;52.556;13.384;2024-02-26T02:38:50;12.53;;;10.53;;
10162;SDS011;5123;52.556;13.384;2024-02-26T02:41:23;14.60;;;10.90;;
10162;SDS011;5123;52.556;13.384;2024-02-26T02:43:57;11.00;;;8.80;;
10162;SDS011;5123;52.556;13.384;2024-02-26T02:46:33;11.23;;;8.63;;
10162;SDS011;5123;52.556;13.384;2024-02-26T02:49:09;14.63;;;8.83;;
10162;SDS011;5123;52.556;13.384;2024-02-26T02:51:43;11.10;;;8.43;;
10162;SDS011;5123;52.556;13.384;2024-02-26T02:54:17;9.27;;;8.37;;
10162;SDS011;5123;52.556;13.384;2024-02-26T02:56:50;10.77;;;9.20;;
10162;SDS011;5123;52.556;13.384;2024-02-26T02:59:23;9.20;;;7.90;;
10162;SDS011;5123;52.556;13.384;2024-02-26T03:01:56;11.93;;;8.57;;
10162;SDS011;5123;52.556;13.384;2024-02-26T03:04:29;10.93;;;8.43;;
10162;SDS011;5123;52.556;13.384;2024-02-26T03:07:03;9.83;;;8.60;;
10162;SDS011;5123;52.556;13.384;2024-02-26T03:09:36;8.37;;;7.57;;
10162;SDS011;5123;52.556;13.384;2024-02-26T03:12:09;10.57;;;6.93;;
10162;SDS011;5123;52.556;13.384;2024-02-26T03:14:41;10.27;;;7.30;;
10162;SDS011;5123;52.556;13.384;2024-02-26T03:17:14;10.87;;;7.47;;
10162;SDS011;5123;52.556;13.384;2024-02-26T03:19:47;9.13;;;7.40;;
10162;SDS011;5123;52.556;13.384;2024-02-26T03:22:28;8.70;;;7.47;;
10162;SDS011;5123;52.556;13.384;2024-02-26T03:25:01;8.00;;;7.20;;
10162;SDS011;5123;52.556;13.384;2024-02-26T03:27:33;9.00;;;7.03;;
10162;SDS011;5123;52.556;13.384;2024-02-26T03:30:07;9.53;;;6.90;;
10162;SDS011;5123;52.556;13.384;2024-02-26T03:32:40;8.20;;;7.30;;
10162;SDS011;5123;52.556;13.384;2024-02-26T03:35:13;9.40;;;7.43;;
10162;SDS011;5123;52.556;13.384;2024-02-26T03:37:47;7.67;;;6.87;;
10162;SDS011;5123;52.556;13.384;2024-02-26T03:40:25;7.87;;;6.90;;
10162;SDS011;5123;52.556;13.384;2024-02-26T03:42:58;8.20;;;6.67;;
10162;SDS011;5123;52.556;13.384;2024-02-26T03:45:31;9.17;;;6.70;;
10162;SDS011;5123;52.556;13.384;2024-02-26T03:48:04;8.70;;;7.23;;
10162;SDS011;5123;52.556;13.384;2024-02-26T03:50:37;8.13;;;6.77;;
10162;SDS011;5123;52.556;13.384;2024-02-26T03:53:13;10.17;;;6.57;;
10162;SDS011;5123;52.556;13.384;2024-02-26T03:55:46;8.93;;;6.83;;
10162;SDS011;5123;52.556;13.384;2024-02-26T03:58:18;9.90;;;6.93;;
10162;SDS011;5123;52.556;13.384;2024-02-26T04:00:51;13.70;;;7.70;;
10162;SDS011;5123;52.556;13.384;2024-02-26T04:03:24;10.77;;;6.90;;
10162;SDS011;5123;52.556;13.384;2024-02-26T04:05:57;9.33;;;7.17;;
10162;SDS011;5123;52.556;13.384;2024-02-26T04:08:31;8.20;;;7.37;;
10162;SDS011;5123;52.556;13.384;2024-02-26T04:11:04;9.27;;;6.73;;
10162;SDS011;5123;52.556;13.384;2024-02-26T04:13:40;8.23;;;7.00;;
10162;SDS011;5123;52.556;13.384;2024-02-26T04:16:12;8.20;;;7.20;;
10162;SDS011;5123;52.556;13.384;2024-02-26T04:18:52;7.53;;;6.73;;
10162;SDS011;5123;52.556;13.384;2024-02-26T04:21:26;7.97;;;6.63;;
10162;SDS011;5123;52.556;13.384;2024-02-26T04:24:00;8.07;;;7.27;;
10162;SDS011;5123;52.556;13.384;2024-02-26T04:26:34;11.83;;;7.63;;
10162;SDS011;5123;52.556;13.384;2024-02-26T04:29:07;8.97;;;7.90;;
10162;SDS011;5123;52.556;13.384;2024-02-26T04:31:39;8.23;;;7.40;;
10162;SDS011;5123;52.556;13.384;2024-02-26T04:34:13;8.93;;;7.53;;
10162;SDS011;5123;52.556;13.384;2024-02-26T04:36:46;10.47;;;7.53;;
10162;SDS011;5123;52.556;13.384;2024-02-26T04:39:20;7.90;;;7.10;;
10162;SDS011;5123;52.556;13.384;2024-02-26T04:42:02;9.50;;;7.47;;
10162;SDS011;5123;52.556;13.384;2024-02-26T04:44:35;9.23;;;8.20;;
10162;SDS011;5123;52.556;13.384;2024-02-26T04:47:08;9.20;;;8.23;;
10162;SDS011;5123;52.556;13.384;2024-02-26T04:49:41;11.67;;;8.13;;
10162;SDS011;5123;52.556;13.384;2024-02-26T04:52:13;8.77;;;7.73;;
10162;SDS011;5123;52.556;13.384;2024-02-26T04:54:47;8.93;;;7.30;;
10162;SDS011;5123;52.556;13.384;2024-02-26T04:57:20;10.33;;;7.73;;
10162;SDS011;5123;52.556;13.384;2024-02-26T04:59:53;11.63;;;7.67;;
10162;SDS011;5123;52.556;13.384;2024-02-26T05:02:26;10.17;;;8.33;;
10162;SDS011;5123;52.556;13.384;2024-02-26T05:05:03;9.97;;;8.13;;
10162;SDS011;5123;52.556;13.384;2024-02-26T05:07:39;12.40;;;8.80;;
10162;SDS011;5123;52.556;13.384;2024-02-26T05:10:13;8.80;;;7.87;;
10162;SDS011;5123;52.556;13.384;2024-02-26T05:12:46;8.63;;;7.07;;
10162;SDS011;5123;52.556;13.384;2024-02-26T05:15:19;11.37;;;7.47;;
10162;SDS011;5123;52.556;13.384;2024-02-26T05:17:52;11.50;;;8.63;;
10162;SDS011;5123;52.556;13.384;2024-02-26T05:20:25;8.87;;;7.73;;
10162;SDS011;5123;52.556;13.384;2024-02-26T05:22:58;11.57;;;8.50;;
10162;SDS011;5123;52.556;13.384;2024-02-26T05:25:32;12.67;;;8.37;;
10162;SDS011;5123;52.556;13.384;2024-02-26T05:28:06;12.33;;;8.63;;
10162;SDS011;5123;52.556;13.384;2024-02-26T05:30:38;11.23;;;8.87;;
10162;SDS011;5123;52.556;13.384;2024-02-26T05:33:12;13.13;;;8.33;;
10162;SDS011;5123;52.556;13.384;2024-02-26T05:35:49;11.73;;;9.53;;
10162;SDS011;5123;52.556;13.384;2024-02-26T05:38:22;12.77;;;9.50;;
10162;SDS011;5123;52.556;13.384;2024-02-26T05:40:56;14.60;;;10.07;;
10162;SDS011;5123;52.556;13.384;2024-02-26T05:43:30;10.93;;;9.17;;
10162;SDS011;5123;52.556;13.384;2024-02-26T05:46:02;12.20;;;9.70;;
10162;SDS011;5123;52.556;13.384;2024-02-26T05:48:35;13.17;;;9.70;;
10162;SDS011;5123;52.556;13.384;2024-02-26T05:51:11;11.53;;;9.83;;
10162;SDS011;5123;52.556;13.384;2024-02-26T05:53:43;11.33;;;9.00;;
10162;SDS011;5123;52.556;13.384;2024-02-26T05:56:18;10.77;;;9.67;;
10162;SDS011;5123;52.556;13.384;2024-02-26T05:58:50;14.60;;;10.07;;
10162;SDS011;5123;52.556;13.384;2024-02-26T06:01:24;14.33;;;9.67;;
10162;SDS011;5123;52.556;13.384;2024-02-26T06:03:57;12.63;;;10.43;;
10162;SDS011;5123;52.556;13.384;2024-02-26T06:06:30;13.20;;;10.43;;
10162;SDS011;5123;52.556;13.384;2024-02-26T06:09:03;14.00;;;10.53;;
10162;SDS011;5123;52.556;13.384;2024-02-26T06:11:38;13.80;;;9.73;;
10162;SDS011;5123;52.556;13.384;2024-02-26T06:14:11;13.30;;;9.73;;
10162;SDS011;5123;52.556;13.384;2024-02-26T06:16:45;14.07;;;10.07;;
10162;SDS011;5123;52.556;13.384;2024-02-26T06:19:19;16.20;;;10.60;;
10162;SDS011;5123;52.556;13.384;2024-02-26T06:21:52;13.47;;;10.27;;
10162;SDS011;5123;52.556;13.384;2024-02-26T06:24:25;12.67;;;10.30;;
10162;SDS011;5123;52.556;13.384;2024-02-26T06:26:59;12.33;;;10.80;;
10162;SDS011;5123;52.556;13.384;2024-02-26T06:29:32;15.77;;;11.13;;
10162;SDS011;5123;52.556;13.384;2024-02-26T06:32:05;12.47;;;10.53;;
10162;SDS011;5123;52.556;13.384;2024-02-26T06:34:38;14.97;;;11.40;;
10162;SDS011;5123;52.556;13.384;2024-02-26T06:37:13;11.97;;;10.27;;
10162;SDS011;5123;52.556;13.384;2024-02-26T06:39:46;16.53;;;11.67;;
10162;SDS011;5123;52.556;13.384;2024-02-26T06:42:22;16.37;;;11.70;;
10162;SDS011;5123;52.556;13.384;2024-02-26T06:44:54;14.10;;;10.87;;
10162;SDS011;5123;52.556;13.384;2024-02-26T06:47:27;14.30;;;10.90;;
10162;SDS011;5123;52.556;13.384;2024-02-26T06:50:00;13.47;;;11.40;;
10162;SDS011;5123;52.556;13.384;2024-02-26T06:52:33;14.40;;;10.77;;
10162;SDS011;5123;52.556;13.384;2024-02-26T06:55:09;15.90;;;11.33;;
10162;SDS011;5123;52.556;13.384;2024-02-26T06:57:43;14.57;;;10.97;;
10162;SDS011;5123;52.556;13.384;2024-02-26T07:00:16;14.37;;;11.07;;
10162;SDS011;5123;52.556;13.384;2024-02-26T07:02:49;18.30;;;11.80;;
10162;SDS011;5123;52.556;13.384;2024-02-26T07:05:22;13.27;;;10.97;;
10162;SDS011;5123;52.556;13.384;2024-02-26T07:07:55;17.40;;;10.70;;
10162;SDS011;5123;52.556;13.384;2024-02-26T07:10:27;14.00;;;11.70;;
10162;SDS011;5123;52.556;13.384;2024-02-26T07:13:01;14.07;;;11.47;;
10162;SDS011;5123;52.556;13.384;2024-02-26T07:15:35;17.93;;;11.67;;
10162;SDS011;5123;52.556;13.384;2024-02-26T07:18:08;17.10;;;12.63;;
10162;SDS011;5123;52.556;13.384;2024-02-26T07:20:42;14.47;;;11.57;;
10162;SDS011;5123;52.556;13.384;2024-02-26T07:23:15;17.27;;;13.30;;
10162;SDS011;5123;52.556;13.384;2024-02-26T07:25:48;18.67;;;12.97;;
10162;SDS011;5123;52.556;13.384;2024-02-26T07:28:25;19.80;;;12.80;;
10162;SDS011;5123;52.556;13.384;2024-02-26T07:30:58;17.93;;;13.20;;
10162;SDS011;5123;52.556;13.384;2024-02-26T07:33:30;17.33;;;12.97;;
10162;SDS011;5123;52.556;13.384;2024-02-26T07:36:04;20.07;;;13.50;;
10162;SDS011;5123;52.556;13.384;2024-02-26T07:38:37;15.97;;;13.30;;
10162;SDS011;5123;52.556;13.384;2024-02-26T07:41:14;19.33;;;13.43;;
10162;SDS011;5123;52.556;13.384;2024-02-26T07:43:48;19.00;;;13.00;;
10162;SDS011;5123;52.556;13.384;2024-02-26T07:46:21;21.57;;;13.80;;
10162;SDS011;5123;52.556;13.384;2024-02-26T07:48:53;18.13;;;14.63;;
10162;SDS011;5123;52.556;13.384;2024-02-26T07:51:26;19.43;;;13.87;;
10162;SDS011;5123;52.556;13.384;2024-02-26T07:53:59;20.93;;;15.03;;
10162;SDS011;5123;52.556;13.384;2024-02-26T07:56:32;18.97;;;14.13;;
10162;SDS011;5123;52.556;13.384;2024-02-26T07:59:06;17.07;;;14.33;;
10162;SDS011;5123;52.556;13.384;2024-02-26T08:01:39;16.70;;;13.93;;
10162;SDS011;5123;52.556;13.384;2024-02-26T08:04:13;20.67;;;14.17;;
10162;SDS011;5123;52.556;13.384;2024-02-26T08:06:48;18.60;;;14.47;;
10162;SDS011;5123;52.556;13.384;2024-02-26T08:09:21;18.13;;;14.47;;
10162;SDS011;5123;52.556;13.384;2024-02-26T08:11:54;18.97;;;14.37;;
10162;SDS011;5123;52.556;13.384;2024-02-26T08:14:28;23.23;;;14.93;;
10162;SDS011;5123;52.556;13.384;2024-02-26T08:17:00;18.10;;;14.17;;
10162;SDS011;5123;52.556;13.384;2024-02-26T08:19:33;17.20;;;14.07;;
10162;SDS011;5123;52.556;13.384;2024-02-26T08:22:07;19.30;;;13.97;;
10162;SDS011;5123;52.556;13.384;2024-02-26T08:24:41;17.40;;;13.60;;
10162;SDS011;5123;52.556;13.384;2024-02-26T08:27:14;17.60;;;14.40;;
10162;SDS011;5123;52.556;13.384;2024-02-26T08:29:48;18.07;;;14.33;;
10162;SDS011;5123;52.556;13.384;2024-02-26T08:32:21;22.17;;;14.10;;
10162;SDS011;5123;52.556;13.384;2024-02-26T08:34:53;16.53;;;12.93;;
10162;SDS011;5123;52.556;13.384;2024-02-26T08:37:26;21.07;;;13.37;;
10162;SDS011;5123;52.556;13.384;2024-02-26T08:39:59;16.23;;;13.17;;
10162;SDS011;5123;52.556;13.384;2024-02-26T08:42:36;15.47;;;13.17;;
10162;SDS011;5123;52.556;13.384;2024-02-26T08:45:10;18.47;;;13.53;;
10162;SDS011;5123;52.556;13.384;2024-02-26T08:47:44;20.00;;;13.90;;
10162;SDS011;5123;52.556;13.384;2024-02-26T08:50:18;15.43;;;13.70;;
10162;SDS011;5123;52.556;13.384;2024-02-26T08:52:51;17.00;;;13.40;;
10162;SDS011;5123;52.556;13.384;2024-02-26T08:55:24;19.93;;;14.20;;
10162;SDS011;5123;52.556;13.384;2024-02-26T08:57:57;19.23;;;15.03;;
10162;SDS011;5123;52.556;13.384;2024-02-26T09:00:31;22.60;;;14.63;;
10162;SDS011;5123;52.556;13.384;2024-02-26T09:03:04;18.83;;;15.03;;
10162;SDS011;5123;52.556;13.384;2024-02-26T09:05:36;18.53;;;14.83;;
10162;SDS011;5123;52.556;13.384;2024-02-26T09:08:10;19.83;;;14.37;;
10162;SDS011;5123;52.556;13.384;2024-02-26T09:10:43;18.67;;;14.70;;
10162;SDS011;5123;52.556;13.384;2024-02-26T09:13:16;19.00;;;13.97;;
10162;SDS011;5123;52.556;13.384;2024-02-26T09:15:52;17.83;;;14.03;;
10162;SDS011;5123;52.556;13.384;2024-02-26T09:18:26;17.53;;;13.97;;
10162;SDS011;5123;52.556;13.384;2024-02-26T09:21:03;17.53;;;14.53;;
10162;SDS011;5123;52.556;13.384;2024-02-26T09:23:36;18.13;;;13.40;;
10162;SDS011;5123;52.556;13.384;2024-02-26T09:26:09;16.80;;;14.07;;
10162;SDS011;5123;52.556;13.384;2024-02-26T09:28:42;19.23;;;14.67;;
10162;SDS011;5123;52.556;13.384;2024-02-26T09:31:17;18.23;;;13.93;;
10162;SDS011;5123;52.556;13.384;2024-02-26T09:33:51;18.90;;;15.07;;
10162;SDS011;5123;52.556;13.384;2024-02-26T09:36:24;18.10;;;15.43;;
10162;SDS011;5123;52.556;13.384;2024-02-26T09:38:56;21.47;;;16.57;;
10162;SDS011;5123;52.556;13.384;2024-02-26T09:41:32;22.03;;;16.87;;
10162;SDS011;5123;52.556;13.384;2024-02-26T09:44:06;21.60;;;16.87;;
10162;SDS011;5123;52.556;13.384;2024-02-26T09:46:41;19.83;;;15.63;;
10162;SDS011;5123;52.556;13.384;2024-02-26T09:49:15;23.53;;;15.10;;
10162;SDS011;5123;52.556;13.384;2024-02-26T09:51:48;21.70;;;16.30;;
10162;SDS011;5123;52.556;13.384;2024-02-26T09:54:22;19.47;;;15.20;;
10162;SDS011;5123;52.556;13.384;2024-02-26T09:56:57;17.60;;;14.37;;
10162;SDS011;5123;52.556;13.384;2024-02-26T09:59:38;21.13;;;14.57;;
10162;SDS011;5123;52.556;13.384;2024-02-26T10:02:13;18.53;;;15.27;;
10162;SDS011;5123;52.556;13.384;2024-02-26T10:04:46;17.07;;;13.77;;
10162;SDS011;5123;52.556;13.384;2024-02-26T10:07:23;20.67;;;16.17;;
10162;SDS011;5123;52.556;13.384;2024-02-26T10:09:55;18.60;;;13.77;;
10162;SDS011;5123;52.556;13.384;2024-02-26T10:12:29;20.30;;;14.57;;
10162;SDS011;5123;52.556;13.384;2024-02-26T10:15:03;22.40;;;14.70;;
10162;SDS011;5123;52.556;13.384;2024-02-26T10:17:37;13.40;;;11.97;;
10162;SDS011;5123;52.556;13.384;2024-02-26T10:20:11;16.10;;;13.07;;
10162;SDS011;5123;52.556;13.384;2024-02-26T10:22:44;17.00;;;13.77;;
10162;SDS011;5123;52.556;13.384;2024-02-26T10:25:17;16.67;;;13.03;;
10162;SDS011;5123;52.556;13.384;2024-02-26T10:27:50;21.07;;;16.80;;
10162;SDS011;5123;52.556;13.384;2024-02-26T10:30:24;14.33;;;12.17;;
10162;SDS011;5123;52.556;13.384;2024-02-26T10:32:59;17.63;;;12.87;;
10162;SDS011;5123;52.556;13.384;2024-02-26T10:35:31;14.60;;;12.57;;
10162;SDS011;5123;52.556;13.384;2024-02-26T10:38:05;15.57;;;11.80;;
10162;SDS011;5123;52.556;13.384;2024-02-26T10:40:39;26.53;;;18.67;;
10162;SDS011;5123;52.556;13.384;2024-02-26T10:43:12;15.67;;;11.17;;
10162;SDS011;5123;52.556;13.384;2024-02-26T10:45:46;13.70;;;11.00;;
10162;SDS011;5123;52.556;13.384;2024-02-26T10:48:20;15.03;;;11.03;;
10162;SDS011;5123;52.556;13.384;2024-02-26T10:50:55;13.93;;;11.47;;
10162;SDS011;5123;52.556;13.384;2024-02-26T10:53:31;15.15;;;13.45;;
10162;SDS011;5123;52.556;13.384;2024-02-26T10:56:06;16.37;;;12.77;;
10162;SDS011;5123;52.556;13.384;2024-02-26T10:58:42;14.40;;;11.30;;
10162;SDS011;5123;52.556;13.384;2024-02-26T11:01:15;12.17;;;10.33;;
10162;SDS011;5123;52.556;13.384;2024-02-26T11:03:49;12.27;;;10.60;;
10162;SDS011;5123;52.556;13.384;2024-02-26T11:06:23;13.50;;;10.20;;
10162;SDS011;5123;52.556;13.384;2024-02-26T11:08:56;13.90;;;10.90;;
10162;SDS011;5123;52.556;13.384;2024-02-26T11:11:30;14.00;;;10.43;;
10162;SDS011;5123;52.556;13.384;2024-02-26T11:14:06;11.67;;;10.27;;
10162;SDS011;5123;52.556;13.384;2024-02-26T11:16:41;13.43;;;9.97;;
10162;SDS011;5123;52.556;13.384;2024-02-26T11:19:17;14.13;;;10.30;;
10162;SDS011;5123;52.556;13.384;2024-02-26T11:21:51;13.13;;;10.47;;
10162;SDS011;5123;52.556;13.384;2024-02-26T11:24:24;14.33;;;11.40;;
10162;SDS011;5123;52.556;13.384;2024-02-26T11:26:58;13.67;;;10.70;;
10162;SDS011;5123;52.556;13.384;2024-02-26T11:29:33;13.20;;;11.03;;
10162;SDS011;5123;52.556;13.384;2024-02-26T11:32:07;12.10;;;10.77;;
10162;SDS011;5123;52.556;13.384;2024-02-26T11:34:41;11.50;;;10.30;;
10162;SDS011;5123;52.556;13.384;2024-02-26T11:37:17;12.50;;;10.73;;
10162;SDS011;5123;52.556;13.384;2024-02-26T11:39:51;13.33;;;10.80;;
10162;SDS011;5123;52.556;13.384;2024-02-26T11:42:24;11.60;;;10.40;;
10162;SDS011;5123;52.556;13.384;2024-02-26T11:44:57;13.13;;;11.17;;
10162;SDS011;5123;52.556;13.384;2024-02-26T11:47:32;13.80;;;10.37;;
10162;SDS011;5123;52.556;13.384;2024-02-26T11:53:22;13.70;;;11.77;;
10162;SDS011;5123;52.556;13.384;2024-02-26T11:56:16;18.53;;;13.90;;
10162;SDS011;5123;52.556;13.384;2024-02-26T11:58:59;17.03;;;13.70;;
10162;SDS011;5123;52.556;13.384;2024-02-26T12:01:42;13.90;;;11.83;;
10162;SDS011;5123;52.556;13.384;2024-02-26T12:04:16;14.63;;;11.40;;
10162;SDS011;5123;52.556;13.384;2024-02-26T12:06:53;13.40;;;11.03;;
10162;SDS011;5123;52.556;13.384;2024-02-26T12:09:32;14.50;;;12.13;;
10162;SDS011;5123;52.556;13.384;2024-02-26T12:12:06;15.00;;;11.83;;
10162;SDS011;5123;52.556;13.384;2024-02-26T12:14:40;13.60;;;11.10;;
10162;SDS011;5123;52.556;13.384;2024-02-26T12:17:18;13.50;;;10.87;;
10162;SDS011;5123;52.556;13.384;2024-02-26T12:19:52;12.30;;;10.97;;
10162;SDS011;5123;52.556;13.384;2024-02-26T12:22:25;13.60;;;11.63;;
10162;SDS011;5123;52.556;13.384;2024-02-26T12:25:01;12.03;;;10.40;;
10162;SDS011;5123;52.556;13.384;2024-02-26T12:27:37;14.33;;;10.70;;
10162;SDS011;5123;52.556;13.384;2024-02-26T12:30:10;12.13;;;10.13;;
10162;SDS011;5123;52.556;13.384;2024-02-26T12:32:43;10.77;;;9.33;;
10162;SDS011;5123;52.556;13.384;2024-02-26T12:35:16;12.77;;;9.33;;
10162;SDS011;5123;52.556;13.384;2024-02-26T12:37:49;14.40;;;8.80;;
10162;SDS011;5123;52.556;13.384;2024-02-26T12:40:23;10.30;;;8.93;;
10162;SDS011;5123;52.556;13.384;2024-02-26T12:42:57;10.93;;;8.70;;
10162;SDS011;5123;52.556;13.384;2024-02-26T12:45:30;9.43;;;8.07;;
10162;SDS011;5123;52.556;13.384;2024-02-26T12:48:04;8.63;;;6.67;;
10162;SDS011;5123;52.556;13.384;2024-02-26T12:50:37;8.53;;;7.37;;
10162;SDS011;5123;52.556;13.384;2024-02-26T12:53:10;8.80;;;7.33;;
10162;SDS011;5123;52.556;13.384;2024-02-26T12:55:45;8.50;;;7.50;;
10162;SDS011;5123;52.556;13.384;2024-02-26T12:58:18;9.03;;;7.00;;
10162;SDS011;5123;52.556;13.384;2024-02-26T13:00:51;10.20;;;7.50;;
10162;SDS011;5123;52.556;13.384;2024-02-26T13:03:25;8.77;;;6.30;;
10162;SDS011;5123;52.556;13.384;2024-02-26T13:05:58;7.97;;;6.50;;
10162;SDS011;5123;52.556;13.384;2024-02-26T13:08:31;8.33;;;7.37;;
10162;SDS011;5123;52.556;13.384;2024-02-26T13:11:06;10.10;;;8.97;;
10162;SDS011;5123;52.556;13.384;2024-02-26T13:13:39;6.73;;;6.03;;
10162;SDS011;5123;52.556;13.384;2024-02-26T13:16:13;13.90;;;10.07;;
10162;SDS011;5123;52.556;13.384;2024-02-26T13:18:46;7.53;;;6.70;;
10162;SDS011;5123;52.556;13.384;2024-02-26T13:21:19;8.20;;;6.73;;
10162;SDS011;5123;52.556;13.384;2024-02-26T13:23:53;5.53;;;4.83;;
10162;SDS011;5123;52.556;13.384;2024-02-26T13:26:29;6.07;;;5.00;;
10162;SDS011;5123;52.556;13.384;2024-02-26T13:29:02;6.13;;;4.70;;
10162;SDS011;5123;52.556;13.384;2024-02-26T13:31:38;5.63;;;4.03;;
10162;SDS011;5123;52.556;13.384;2024-02-26T13:34:22;5.90;;;4.67;;
10162;SDS011;5123;52.556;13.384;2024-02-26T13:36:56;6.37;;;4.80;;
10162;SDS011;5123;52.556;13.384;2024-02-26T13:39:29;4.77;;;4.37;;
10162;SDS011;5123;52.556;13.384;2024-02-26T13:42:04;5.47;;;4.40;;
10162;SDS011;5123;52.556;13.384;2024-02-26T13:44:36;6.17;;;5.30;;
10162;SDS011;5123;52.556;13.384;2024-02-26T13:47:11;6.10;;;4.77;;
10162;SDS011;5123;52.556;13.384;2024-02-26T13:49:44;6.57;;;4.70;;
10162;SDS011;5123;52.556;13.384;2024-02-26T13:52:17;5.63;;;4.47;;
10162;SDS011;5123;52.556;13.384;2024-02-26T13:54:51;6.30;;;4.70;;
10162;SDS011;5123;52.556;13.384;2024-02-26T13:57:25;5.60;;;4.33;;
10162;SDS011;5123;52.556;13.384;2024-02-26T13:59:58;6.07;;;4.53;;
10162;SDS011;5123;52.556;13.384;2024-02-26T14:02:34;6.23;;;4.23;;
10162;SDS011;5123;52.556;13.384;2024-02-26T14:05:08;4.20;;;3.80;;
10162;SDS011;5123;52.556;13.384;2024-02-26T14:07:40;5.80;;;4.37;;
10162;SDS011;5123;52.556;13.384;2024-02-26T14:10:13;5.33;;;4.00;;
10162;SDS011;5123;52.556;13.384;2024-02-26T14:12:48;5.53;;;4.70;;
10162;SDS011;5123;52.556;13.384;2024-02-26T14:15:21;6.63;;;5.30;;
10162;SDS011;5123;52.556;13.384;2024-02-26T14:17:57;6.03;;;4.90;;
10162;SDS011;5123;52.556;13.384;2024-02-26T14:20:31;6.53;;;4.53;;
10162;SDS011;5123;52.556;13.384;2024-02-26T14:23:04;8.17;;;7.23;;
10162;SDS011;5123;52.556;13.384;2024-02-26T14:25:36;6.13;;;5.40;;
10162;SDS011;5123;52.556;13.384;2024-02-26T14:28:10;8.03;;;5.63;;
10162;SDS011;5123;52.556;13.384;2024-02-26T14:30:52;7.23;;;5.40;;
10162;SDS011;5123;52.556;13.384;2024-02-26T14:33:25;7.63;;;5.67;;
10162;SDS011;5123;52.556;13.384;2024-02-26T14:35:58;6.60;;;5.33;;
10162;SDS011;5123;52.556;13.384;2024-02-26T14:38:30;8.50;;;6.03;;
10162;SDS011;5123;52.556;13.384;2024-02-26T14:41:03;7.07;;;6.00;;
10162;SDS011;5123;52.556;13.384;2024-02-26T14:43:38;7.37;;;5.97;;
10162;SDS011;5123;52.556;13.384;2024-02-26T14:46:12;7.43;;;6.40;;
10162;SDS011;5123;52.556;13.384;2024-02-26T14:48:45;13.83;;;7.40;;
10162;SDS011;5123;52.556;13.384;2024-02-26T14:51:18;7.63;;;6.33;;
10162;SDS011;5123;52.556;13.384;2024-02-26T14:53:50;9.87;;;7.50;;
10162;SDS011;5123;52.556;13.384;2024-02-26T14:56:24;8.93;;;6.30;;
10162;SDS011;5123;52.556;13.384;2024-02-26T14:58:59;8.20;;;6.83;;
10162;SDS011;5123;52.556;13.384;2024-02-26T15:01:32;9.70;;;6.33;;
10162;SDS011;5123;52.556;13.384;2024-02-26T15:04:05;7.33;;;6.63;;
10162;SDS011;5123;52.556;13.384;2024-02-26T15:06:40;8.93;;;6.17;;
10162;SDS011;5123;52.556;13.384;2024-02-26T15:09:14;9.00;;;6.77;;
10162;SDS011;5123;52.556;13.384;2024-02-26T15:11:47;7.30;;;6.27;;
10162;SDS011;5123;52.556;13.384;2024-02-26T15:14:21;8.47;;;6.47;;